sensor_id;sensor_type;location;lat;lon;timestamp;P1;durP1;ratioP1;P2;durP2;ratioP2
10092;SDS011;5085;48.092;11.484;2022-12-29T00:01:15;1.63;;;0.77;;
10092;SDS011;5085;48.092;11.484;2022-12-29T00:03:41;1.55;;;0.80;;
10092;SDS011;5085;48.092;11.484;2022-12-29T00:06:07;1.88;;;0.85;;
10092;SDS011;5085;48.092;11.484;2022-12-29T00:08:33;2.65;;;0.90;;
10092;SDS011;5085;48.092;11.484;2022-12-29T00:11:06;1.10;;;0.52;;
10092;SDS011;5085;48.092;11.484;2022-12-29T00:13:33;1.50;;;0.70;;
10092;SDS011;5085;48.092;11.484;2022-12-29T00:16:17;1.40;;;0.70;;
10092;SDS011;5085;48.092;11.484;2022-12-29T00:18:43;1.23;;;0.73;;
10092;SDS011;5085;48.092;11.484;2022-12-29T00:21:12;1.42;;;0.70;;
10092;SDS011;5085;48.092;11.484;2022-12-29T00:23:58;1.02;;;0.47;;
10092;SDS011;5085;48.092;11.484;2022-12-29T00:26:43;1.00;;;0.77;;
10092;SDS011;5085;48.092;11.484;2022-12-29T00:29:27;0.85;;;0.50;;
10092;SDS011;5085;48.092;11.484;2022-12-29T00:32:12;1.05;;;0.60;;
10092;SDS011;5085;48.092;11.484;2022-12-29T00:34:56;0.88;;;0.50;;
10092;SDS011;5085;48.092;11.484;2022-12-29T00:37:36;1.30;;;0.65;;
10092;SDS011;5085;48.092;11.484;2022-12-29T00:40:23;1.23;;;0.60;;
10092;SDS011;5085;48.092;11.484;2022-12-29T00:43:07;0.80;;;0.50;;
10092;SDS011;5085;48.092;11.484;2022-12-29T00:45:52;0.85;;;0.60;;
10092;SDS011;5085;48.092;11.484;2022-12-29T00:48:18;0.93;;;0.45;;
10092;SDS011;5085;48.092;11.484;2022-12-29T00:51:02;1.42;;;0.70;;
10092;SDS011;5085;48.092;11.484;2022-12-29T00:53:28;0.82;;;0.55;;
10092;SDS011;5085;48.092;11.484;2022-12-29T00:55:54;0.95;;;0.60;;
10092;SDS011;5085;48.092;11.484;2022-12-29T00:58:20;1.30;;;0.60;;
10092;SDS011;5085;48.092;11.484;2022-12-29T01:00:47;0.80;;;0.43;;
10092;SDS011;5085;48.092;11.484;2022-12-29T01:03:13;1.27;;;0.55;;
10092;SDS011;5085;48.092;11.484;2022-12-29T01:05:39;0.85;;;0.50;;
10092;SDS011;5085;48.092;11.484;2022-12-29T01:08:05;0.77;;;0.45;;
10092;SDS011;5085;48.092;11.484;2022-12-29T01:10:31;1.20;;;0.63;;
10092;SDS011;5085;48.092;11.484;2022-12-29T01:12:58;0.47;;;0.40;;
10092;SDS011;5085;48.092;11.484;2022-12-29T01:15:24;1.10;;;0.52;;
10092;SDS011;5085;48.092;11.484;2022-12-29T01:17:50;0.77;;;0.50;;
10092;SDS011;5085;48.092;11.484;2022-12-29T01:20:16;0.80;;;0.52;;
10092;SDS011;5085;48.092;11.484;2022-12-29T01:22:42;0.98;;;0.50;;
10092;SDS011;5085;48.092;11.484;2022-12-29T01:25:09;0.60;;;0.20;;
10092;SDS011;5085;48.092;11.484;2022-12-29T01:27:37;0.57;;;0.30;;
10092;SDS011;5085;48.092;11.484;2022-12-29T01:30:03;1.05;;;0.60;;
10092;SDS011;5085;48.092;11.484;2022-12-29T01:32:31;1.77;;;0.60;;
10092;SDS011;5085;48.092;11.484;2022-12-29T01:34:57;2.40;;;0.40;;
10092;SDS011;5085;48.092;11.484;2022-12-29T01:37:24;0.60;;;0.40;;
10092;SDS011;5085;48.092;11.484;2022-12-29T01:39:49;0.88;;;0.50;;
10092;SDS011;5085;48.092;11.484;2022-12-29T01:42:17;0.88;;;0.60;;
10092;SDS011;5085;48.092;11.484;2022-12-29T01:47:34;2.08;;;0.50;;
10092;SDS011;5085;48.092;11.484;2022-12-29T01:50:15;0.57;;;0.40;;
10092;SDS011;5085;48.092;11.484;2022-12-29T01:52:49;1.02;;;0.50;;
10092;SDS011;5085;48.092;11.484;2022-12-29T01:55:20;0.65;;;0.40;;
10092;SDS011;5085;48.092;11.484;2022-12-29T01:57:48;1.63;;;0.60;;
10092;SDS011;5085;48.092;11.484;2022-12-29T02:00:17;1.73;;;0.50;;
10092;SDS011;5085;48.092;11.484;2022-12-29T02:02:55;0.63;;;0.40;;
10092;SDS011;5085;48.092;11.484;2022-12-29T02:05:56;0.73;;;0.40;;
10092;SDS011;5085;48.092;11.484;2022-12-29T02:08:18;1.45;;;0.60;;
10092;SDS011;5085;48.092;11.484;2022-12-29T02:10:47;4.53;;;0.40;;
10092;SDS011;5085;48.092;11.484;2022-12-29T02:13:16;0.70;;;0.40;;
10092;SDS011;5085;48.092;11.484;2022-12-29T02:30:46;0.80;;;0.60;;
10092;SDS011;5085;48.092;11.484;2022-12-29T02:33:23;1.10;;;0.52;;
10092;SDS011;5085;48.092;11.484;2022-12-29T02:36:21;1.33;;;0.60;;
10092;SDS011;5085;48.092;11.484;2022-12-29T02:41:42;2.35;;;0.68;;
10092;SDS011;5085;48.092;11.484;2022-12-29T02:49:48;1.10;;;0.50;;
10092;SDS011;5085;48.092;11.484;2022-12-29T02:52:24;0.60;;;0.50;;
10092;SDS011;5085;48.092;11.484;2022-12-29T02:54:55;1.20;;;0.50;;
10092;SDS011;5085;48.092;11.484;2022-12-29T02:59:48;0.95;;;0.57;;
10092;SDS011;5085;48.092;11.484;2022-12-29T03:05:05;0.98;;;0.43;;
10092;SDS011;5085;48.092;11.484;2022-12-29T03:07:48;0.80;;;0.40;;
10092;SDS011;5085;48.092;11.484;2022-12-29T03:10:47;2.13;;;0.70;;
10092;SDS011;5085;48.092;11.484;2022-12-29T03:13:35;1.23;;;0.63;;
10092;SDS011;5085;48.092;11.484;2022-12-29T03:16:43;0.63;;;0.40;;
10092;SDS011;5085;48.092;11.484;2022-12-29T03:19:15;0.82;;;0.50;;
10092;SDS011;5085;48.092;11.484;2022-12-29T03:21:51;1.20;;;0.50;;
10092;SDS011;5085;48.092;11.484;2022-12-29T03:24:46;1.13;;;0.60;;
10092;SDS011;5085;48.092;11.484;2022-12-29T03:28:03;2.13;;;0.60;;
10092;SDS011;5085;48.092;11.484;2022-12-29T03:30:10;1.58;;;0.52;;
10092;SDS011;5085;48.092;11.484;2022-12-29T03:32:38;1.05;;;0.50;;
10092;SDS011;5085;48.092;11.484;2022-12-29T03:35:14;1.50;;;0.75;;
10092;SDS011;5085;48.092;11.484;2022-12-29T03:37:44;0.77;;;0.52;;
10092;SDS011;5085;48.092;11.484;2022-12-29T03:40:23;1.65;;;0.70;;
10092;SDS011;5085;48.092;11.484;2022-12-29T03:42:50;1.20;;;0.68;;
10092;SDS011;5085;48.092;11.484;2022-12-29T03:45:19;3.83;;;0.68;;
10092;SDS011;5085;48.092;11.484;2022-12-29T03:47:45;1.33;;;0.68;;
10092;SDS011;5085;48.092;11.484;2022-12-29T03:50:12;1.52;;;0.50;;
10092;SDS011;5085;48.092;11.484;2022-12-29T03:52:40;1.20;;;0.70;;
10092;SDS011;5085;48.092;11.484;2022-12-29T03:55:07;0.68;;;0.55;;
10092;SDS011;5085;48.092;11.484;2022-12-29T03:57:33;0.82;;;0.30;;
10092;SDS011;5085;48.092;11.484;2022-12-29T04:00:04;0.65;;;0.32;;
10092;SDS011;5085;48.092;11.484;2022-12-29T04:02:40;0.80;;;0.50;;
10092;SDS011;5085;48.092;11.484;2022-12-29T04:05:09;1.60;;;0.65;;
10092;SDS011;5085;48.092;11.484;2022-12-29T04:07:36;1.05;;;0.50;;
10092;SDS011;5085;48.092;11.484;2022-12-29T04:10:03;1.58;;;0.50;;
10092;SDS011;5085;48.092;11.484;2022-12-29T04:12:32;0.43;;;0.22;;
10092;SDS011;5085;48.092;11.484;2022-12-29T04:14:59;1.00;;;0.60;;
10092;SDS011;5085;48.092;11.484;2022-12-29T04:17:25;1.10;;;0.50;;
10092;SDS011;5085;48.092;11.484;2022-12-29T04:19:52;0.60;;;0.40;;
10092;SDS011;5085;48.092;11.484;2022-12-29T04:22:38;0.52;;;0.40;;
10092;SDS011;5085;48.092;11.484;2022-12-29T04:25:04;1.80;;;0.60;;
10092;SDS011;5085;48.092;11.484;2022-12-29T04:27:32;0.93;;;0.50;;
10092;SDS011;5085;48.092;11.484;2022-12-29T04:30:19;1.20;;;0.60;;
10092;SDS011;5085;48.092;11.484;2022-12-29T04:32:55;1.17;;;0.70;;
10092;SDS011;5085;48.092;11.484;2022-12-29T04:35:21;1.00;;;0.50;;
10092;SDS011;5085;48.092;11.484;2022-12-29T04:37:48;1.10;;;0.50;;
10092;SDS011;5085;48.092;11.484;2022-12-29T04:40:14;0.63;;;0.50;;
10092;SDS011;5085;48.092;11.484;2022-12-29T04:42:40;1.05;;;0.47;;
10092;SDS011;5085;48.092;11.484;2022-12-29T04:45:07;0.47;;;0.40;;
10092;SDS011;5085;48.092;11.484;2022-12-29T04:47:42;1.40;;;0.60;;
10092;SDS011;5085;48.092;11.484;2022-12-29T04:50:26;0.95;;;0.55;;
10092;SDS011;5085;48.092;11.484;2022-12-29T04:53:22;1.70;;;0.60;;
10092;SDS011;5085;48.092;11.484;2022-12-29T04:55:49;1.90;;;0.75;;
10092;SDS011;5085;48.092;11.484;2022-12-29T04:58:17;3.22;;;0.52;;
10092;SDS011;5085;48.092;11.484;2022-12-29T05:00:43;1.42;;;0.50;;
10092;SDS011;5085;48.092;11.484;2022-12-29T05:03:10;1.58;;;0.63;;
10092;SDS011;5085;48.092;11.484;2022-12-29T05:05:38;1.00;;;0.50;;
10092;SDS011;5085;48.092;11.484;2022-12-29T05:08:05;1.95;;;0.60;;
10092;SDS011;5085;48.092;11.484;2022-12-29T05:10:31;1.33;;;0.80;;
10092;SDS011;5085;48.092;11.484;2022-12-29T05:13:01;1.13;;;0.70;;
10092;SDS011;5085;48.092;11.484;2022-12-29T05:15:27;1.02;;;0.57;;
10092;SDS011;5085;48.092;11.484;2022-12-29T05:17:53;0.50;;;0.40;;
10092;SDS011;5085;48.092;11.484;2022-12-29T05:20:19;0.82;;;0.40;;
10092;SDS011;5085;48.092;11.484;2022-12-29T05:22:46;0.93;;;0.50;;
10092;SDS011;5085;48.092;11.484;2022-12-29T05:25:12;1.00;;;0.47;;
10092;SDS011;5085;48.092;11.484;2022-12-29T05:27:51;2.47;;;0.40;;
10092;SDS011;5085;48.092;11.484;2022-12-29T05:30:23;1.23;;;0.68;;
10092;SDS011;5085;48.092;11.484;2022-12-29T05:32:50;0.77;;;0.30;;
10092;SDS011;5085;48.092;11.484;2022-12-29T05:35:17;1.20;;;0.70;;
10092;SDS011;5085;48.092;11.484;2022-12-29T05:37:43;1.48;;;0.57;;
10092;SDS011;5085;48.092;11.484;2022-12-29T05:40:09;1.20;;;0.60;;
10092;SDS011;5085;48.092;11.484;2022-12-29T05:42:36;1.08;;;0.50;;
10092;SDS011;5085;48.092;11.484;2022-12-29T05:45:16;2.63;;;0.82;;
10092;SDS011;5085;48.092;11.484;2022-12-29T05:47:54;1.40;;;0.50;;
10092;SDS011;5085;48.092;11.484;2022-12-29T05:50:34;0.82;;;0.60;;
10092;SDS011;5085;48.092;11.484;2022-12-29T05:53:14;1.00;;;0.60;;
10092;SDS011;5085;48.092;11.484;2022-12-29T05:55:42;1.15;;;0.43;;
10092;SDS011;5085;48.092;11.484;2022-12-29T05:58:09;0.68;;;0.43;;
10092;SDS011;5085;48.092;11.484;2022-12-29T06:00:36;1.20;;;0.60;;
10092;SDS011;5085;48.092;11.484;2022-12-29T06:03:02;1.80;;;0.82;;
10092;SDS011;5085;48.092;11.484;2022-12-29T06:05:28;2.03;;;0.95;;
10092;SDS011;5085;48.092;11.484;2022-12-29T06:07:54;1.23;;;0.60;;
10092;SDS011;5085;48.092;11.484;2022-12-29T06:10:21;0.90;;;0.50;;
10092;SDS011;5085;48.092;11.484;2022-12-29T06:12:56;1.83;;;0.40;;
10092;SDS011;5085;48.092;11.484;2022-12-29T06:15:22;1.65;;;0.60;;
10092;SDS011;5085;48.092;11.484;2022-12-29T06:17:50;3.17;;;0.68;;
10092;SDS011;5085;48.092;11.484;2022-12-29T06:20:16;1.15;;;0.68;;
10092;SDS011;5085;48.092;11.484;2022-12-29T06:22:42;1.35;;;0.77;;
10092;SDS011;5085;48.092;11.484;2022-12-29T06:25:09;0.98;;;0.40;;
10092;SDS011;5085;48.092;11.484;2022-12-29T06:27:35;0.90;;;0.40;;
10092;SDS011;5085;48.092;11.484;2022-12-29T06:30:01;1.08;;;0.60;;
10092;SDS011;5085;48.092;11.484;2022-12-29T06:32:28;1.20;;;0.68;;
10092;SDS011;5085;48.092;11.484;2022-12-29T06:34:59;5.45;;;0.60;;
10092;SDS011;5085;48.092;11.484;2022-12-29T06:37:25;0.90;;;0.47;;
10092;SDS011;5085;48.092;11.484;2022-12-29T06:39:51;2.67;;;0.80;;
10092;SDS011;5085;48.092;11.484;2022-12-29T06:42:17;0.95;;;0.60;;
10092;SDS011;5085;48.092;11.484;2022-12-29T06:44:50;2.97;;;0.68;;
10092;SDS011;5085;48.092;11.484;2022-12-29T06:47:17;1.00;;;0.57;;
10092;SDS011;5085;48.092;11.484;2022-12-29T06:49:44;1.25;;;0.40;;
10092;SDS011;5085;48.092;11.484;2022-12-29T06:52:10;4.65;;;0.70;;
10092;SDS011;5085;48.092;11.484;2022-12-29T06:54:36;1.05;;;0.40;;
10092;SDS011;5085;48.092;11.484;2022-12-29T06:57:02;1.40;;;0.70;;
10092;SDS011;5085;48.092;11.484;2022-12-29T06:59:28;3.22;;;0.80;;
10092;SDS011;5085;48.092;11.484;2022-12-29T07:01:54;1.15;;;0.70;;
10092;SDS011;5085;48.092;11.484;2022-12-29T07:04:20;1.08;;;0.40;;
10092;SDS011;5085;48.092;11.484;2022-12-29T07:06:46;0.80;;;0.32;;
10092;SDS011;5085;48.092;11.484;2022-12-29T07:09:12;1.85;;;0.60;;
10092;SDS011;5085;48.092;11.484;2022-12-29T07:11:38;4.78;;;0.80;;
10092;SDS011;5085;48.092;11.484;2022-12-29T07:14:04;1.50;;;0.50;;
10092;SDS011;5085;48.092;11.484;2022-12-29T07:16:31;2.10;;;0.93;;
10092;SDS011;5085;48.092;11.484;2022-12-29T07:18:57;2.80;;;0.80;;
10092;SDS011;5085;48.092;11.484;2022-12-29T07:21:25;0.95;;;0.60;;
10092;SDS011;5085;48.092;11.484;2022-12-29T07:23:51;1.38;;;0.90;;
10092;SDS011;5085;48.092;11.484;2022-12-29T07:26:17;1.35;;;0.75;;
10092;SDS011;5085;48.092;11.484;2022-12-29T07:28:43;1.38;;;0.82;;
10092;SDS011;5085;48.092;11.484;2022-12-29T07:31:19;1.35;;;0.80;;
10092;SDS011;5085;48.092;11.484;2022-12-29T07:33:47;1.17;;;0.60;;
10092;SDS011;5085;48.092;11.484;2022-12-29T07:36:13;3.05;;;0.75;;
10092;SDS011;5085;48.092;11.484;2022-12-29T07:38:41;2.72;;;0.70;;
10092;SDS011;5085;48.092;11.484;2022-12-29T07:41:07;1.33;;;0.40;;
10092;SDS011;5085;48.092;11.484;2022-12-29T07:43:33;1.38;;;0.38;;
10092;SDS011;5085;48.092;11.484;2022-12-29T07:46:18;4.70;;;0.60;;
10092;SDS011;5085;48.092;11.484;2022-12-29T07:48:44;1.70;;;0.80;;
10092;SDS011;5085;48.092;11.484;2022-12-29T07:51:10;0.95;;;0.60;;
10092;SDS011;5085;48.092;11.484;2022-12-29T07:53:36;2.90;;;1.00;;
10092;SDS011;5085;48.092;11.484;2022-12-29T07:56:02;1.50;;;0.70;;
10092;SDS011;5085;48.092;11.484;2022-12-29T07:58:28;1.30;;;0.70;;
10092;SDS011;5085;48.092;11.484;2022-12-29T08:00:55;1.05;;;0.40;;
10092;SDS011;5085;48.092;11.484;2022-12-29T08:03:21;0.65;;;0.30;;
10092;SDS011;5085;48.092;11.484;2022-12-29T08:05:48;1.27;;;0.43;;
10092;SDS011;5085;48.092;11.484;2022-12-29T08:08:14;0.82;;;0.50;;
10092;SDS011;5085;48.092;11.484;2022-12-29T08:10:40;1.38;;;0.43;;
10092;SDS011;5085;48.092;11.484;2022-12-29T08:13:06;0.80;;;0.40;;
10092;SDS011;5085;48.092;11.484;2022-12-29T08:15:33;1.23;;;0.77;;
10092;SDS011;5085;48.092;11.484;2022-12-29T08:17:59;2.55;;;0.43;;
10092;SDS011;5085;48.092;11.484;2022-12-29T08:20:25;1.40;;;0.50;;
10092;SDS011;5085;48.092;11.484;2022-12-29T08:22:51;1.08;;;0.60;;
10092;SDS011;5085;48.092;11.484;2022-12-29T08:25:17;1.90;;;0.60;;
10092;SDS011;5085;48.092;11.484;2022-12-29T08:27:43;1.85;;;0.60;;
10092;SDS011;5085;48.092;11.484;2022-12-29T08:30:09;1.35;;;0.50;;
10092;SDS011;5085;48.092;11.484;2022-12-29T08:32:35;1.25;;;0.40;;
10092;SDS011;5085;48.092;11.484;2022-12-29T08:35:01;0.88;;;0.40;;
10092;SDS011;5085;48.092;11.484;2022-12-29T08:37:27;1.17;;;0.40;;
10092;SDS011;5085;48.092;11.484;2022-12-29T08:39:53;3.08;;;0.50;;
10092;SDS011;5085;48.092;11.484;2022-12-29T08:42:19;1.13;;;0.38;;
10092;SDS011;5085;48.092;11.484;2022-12-29T08:44:45;1.10;;;0.70;;
10092;SDS011;5085;48.092;11.484;2022-12-29T08:47:11;1.23;;;0.57;;
10092;SDS011;5085;48.092;11.484;2022-12-29T08:49:37;6.68;;;1.10;;
10092;SDS011;5085;48.092;11.484;2022-12-29T08:52:03;1.00;;;0.60;;
10092;SDS011;5085;48.092;11.484;2022-12-29T08:54:29;1.27;;;0.77;;
10092;SDS011;5085;48.092;11.484;2022-12-29T08:56:55;1.27;;;0.80;;
10092;SDS011;5085;48.092;11.484;2022-12-29T08:59:27;1.95;;;0.88;;
10092;SDS011;5085;48.092;11.484;2022-12-29T09:01:53;3.00;;;0.70;;
10092;SDS011;5085;48.092;11.484;2022-12-29T09:04:19;1.33;;;0.88;;
10092;SDS011;5085;48.092;11.484;2022-12-29T09:06:45;1.35;;;0.60;;
10092;SDS011;5085;48.092;11.484;2022-12-29T09:09:11;1.02;;;0.60;;
10092;SDS011;5085;48.092;11.484;2022-12-29T09:11:37;1.80;;;0.57;;
10092;SDS011;5085;48.092;11.484;2022-12-29T09:14:03;1.25;;;0.50;;
10092;SDS011;5085;48.092;11.484;2022-12-29T09:16:29;1.67;;;0.98;;
10092;SDS011;5085;48.092;11.484;2022-12-29T09:18:55;1.50;;;0.85;;
10092;SDS011;5085;48.092;11.484;2022-12-29T09:21:21;1.05;;;0.43;;
10092;SDS011;5085;48.092;11.484;2022-12-29T09:23:48;4.13;;;0.55;;
10092;SDS011;5085;48.092;11.484;2022-12-29T09:26:14;2.33;;;0.50;;
10092;SDS011;5085;48.092;11.484;2022-12-29T09:28:40;1.60;;;0.50;;
10092;SDS011;5085;48.092;11.484;2022-12-29T09:31:06;3.72;;;0.65;;
10092;SDS011;5085;48.092;11.484;2022-12-29T09:33:32;1.08;;;0.52;;
10092;SDS011;5085;48.092;11.484;2022-12-29T09:36:01;1.48;;;0.50;;
10092;SDS011;5085;48.092;11.484;2022-12-29T09:38:28;2.75;;;0.47;;
10092;SDS011;5085;48.092;11.484;2022-12-29T09:40:56;1.77;;;0.63;;
10092;SDS011;5085;48.092;11.484;2022-12-29T09:51:45;2.00;;;0.52;;
10092;SDS011;5085;48.092;11.484;2022-12-29T09:57:23;1.25;;;0.80;;
10092;SDS011;5085;48.092;11.484;2022-12-29T09:59:54;1.33;;;0.68;;
10092;SDS011;5085;48.092;11.484;2022-12-29T10:05:13;1.58;;;0.60;;
10092;SDS011;5085;48.092;11.484;2022-12-29T10:07:51;1.92;;;0.80;;
10092;SDS011;5085;48.092;11.484;2022-12-29T10:10:45;2.40;;;0.50;;
10092;SDS011;5085;48.092;11.484;2022-12-29T10:13:36;1.20;;;0.47;;
10092;SDS011;5085;48.092;11.484;2022-12-29T10:16:14;1.63;;;0.45;;
10092;SDS011;5085;48.092;11.484;2022-12-29T10:19:09;1.25;;;0.50;;
10092;SDS011;5085;48.092;11.484;2022-12-29T10:24:39;0.93;;;0.45;;
10092;SDS011;5085;48.092;11.484;2022-12-29T10:27:12;1.95;;;0.40;;
10092;SDS011;5085;48.092;11.484;2022-12-29T10:29:43;2.00;;;0.47;;
10092;SDS011;5085;48.092;11.484;2022-12-29T10:32:18;2.42;;;0.60;;
10092;SDS011;5085;48.092;11.484;2022-12-29T10:34:58;3.25;;;0.80;;
10092;SDS011;5085;48.092;11.484;2022-12-29T10:37:32;1.02;;;0.45;;
10092;SDS011;5085;48.092;11.484;2022-12-29T10:40:15;1.42;;;0.40;;
10092;SDS011;5085;48.092;11.484;2022-12-29T10:42:48;2.33;;;0.70;;
10092;SDS011;5085;48.092;11.484;2022-12-29T10:45:18;1.85;;;0.52;;
10092;SDS011;5085;48.092;11.484;2022-12-29T10:50:20;2.30;;;0.77;;
10092;SDS011;5085;48.092;11.484;2022-12-29T10:52:46;2.40;;;0.90;;
10092;SDS011;5085;48.092;11.484;2022-12-29T10:55:18;3.35;;;0.90;;
10092;SDS011;5085;48.092;11.484;2022-12-29T10:57:47;2.28;;;0.82;;
10092;SDS011;5085;48.092;11.484;2022-12-29T11:07:47;2.65;;;0.60;;
10092;SDS011;5085;48.092;11.484;2022-12-29T11:13:00;1.42;;;0.68;;
10092;SDS011;5085;48.092;11.484;2022-12-29T11:15:36;1.52;;;0.80;;
10092;SDS011;5085;48.092;11.484;2022-12-29T11:18:26;1.80;;;0.75;;
10092;SDS011;5085;48.092;11.484;2022-12-29T11:20:57;1.35;;;0.68;;
10092;SDS011;5085;48.092;11.484;2022-12-29T11:26:06;1.88;;;0.60;;
10092;SDS011;5085;48.092;11.484;2022-12-29T11:28:36;1.40;;;0.60;;
10092;SDS011;5085;48.092;11.484;2022-12-29T11:31:03;1.30;;;0.50;;
10092;SDS011;5085;48.092;11.484;2022-12-29T11:33:31;1.58;;;0.55;;
10092;SDS011;5085;48.092;11.484;2022-12-29T11:36:01;1.80;;;0.50;;
10092;SDS011;5085;48.092;11.484;2022-12-29T11:38:35;2.72;;;0.60;;
10092;SDS011;5085;48.092;11.484;2022-12-29T11:41:04;2.35;;;0.57;;
10092;SDS011;5085;48.092;11.484;2022-12-29T11:43:39;0.95;;;0.50;;
10092;SDS011;5085;48.092;11.484;2022-12-29T11:46:16;1.00;;;0.40;;
10092;SDS011;5085;48.092;11.484;2022-12-29T11:48:45;1.30;;;0.60;;
10092;SDS011;5085;48.092;11.484;2022-12-29T11:51:12;1.20;;;0.47;;
10092;SDS011;5085;48.092;11.484;2022-12-29T11:53:49;1.02;;;0.50;;
10092;SDS011;5085;48.092;11.484;2022-12-29T11:56:19;1.90;;;0.70;;
10092;SDS011;5085;48.092;11.484;2022-12-29T11:58:48;2.38;;;0.63;;
10092;SDS011;5085;48.092;11.484;2022-12-29T12:01:17;1.13;;;0.70;;
10092;SDS011;5085;48.092;11.484;2022-12-29T12:03:46;1.00;;;0.43;;
10092;SDS011;5085;48.092;11.484;2022-12-29T12:06:18;1.25;;;0.50;;
10092;SDS011;5085;48.092;11.484;2022-12-29T12:09:14;3.50;;;0.50;;
10092;SDS011;5085;48.092;11.484;2022-12-29T12:11:48;1.15;;;0.50;;
10092;SDS011;5085;48.092;11.484;2022-12-29T12:14:20;1.30;;;0.47;;
10092;SDS011;5085;48.092;11.484;2022-12-29T12:17:12;1.85;;;0.70;;
10092;SDS011;5085;48.092;11.484;2022-12-29T12:19:58;1.35;;;0.40;;
10092;SDS011;5085;48.092;11.484;2022-12-29T12:25:21;1.85;;;0.50;;
10092;SDS011;5085;48.092;11.484;2022-12-29T12:28:10;2.03;;;0.60;;
10092;SDS011;5085;48.092;11.484;2022-12-29T12:30:43;1.30;;;0.55;;
10092;SDS011;5085;48.092;11.484;2022-12-29T12:33:29;0.85;;;0.32;;
10092;SDS011;5085;48.092;11.484;2022-12-29T12:47:10;0.95;;;0.40;;
10092;SDS011;5085;48.092;11.484;2022-12-29T13:00:11;1.05;;;0.40;;
10092;SDS011;5085;48.092;11.484;2022-12-29T13:02:53;0.90;;;0.35;;
10092;SDS011;5085;48.092;11.484;2022-12-29T13:19:17;3.22;;;0.60;;
10092;SDS011;5085;48.092;11.484;2022-12-29T13:22:08;1.98;;;0.60;;
10092;SDS011;5085;48.092;11.484;2022-12-29T13:24:53;3.85;;;0.55;;
10092;SDS011;5085;48.092;11.484;2022-12-29T13:27:32;1.33;;;0.47;;
10092;SDS011;5085;48.092;11.484;2022-12-29T13:30:15;2.20;;;0.50;;
10092;SDS011;5085;48.092;11.484;2022-12-29T13:32:48;4.05;;;0.70;;
10092;SDS011;5085;48.092;11.484;2022-12-29T13:36:02;0.90;;;0.43;;
10092;SDS011;5085;48.092;11.484;2022-12-29T13:38:34;1.98;;;0.50;;
10092;SDS011;5085;48.092;11.484;2022-12-29T13:41:05;1.15;;;0.40;;
10092;SDS011;5085;48.092;11.484;2022-12-29T13:43:44;0.80;;;0.30;;
10092;SDS011;5085;48.092;11.484;2022-12-29T13:46:18;1.30;;;0.45;;
10092;SDS011;5085;48.092;11.484;2022-12-29T13:48:50;1.60;;;0.50;;
10092;SDS011;5085;48.092;11.484;2022-12-29T13:51:27;2.45;;;0.30;;
10092;SDS011;5085;48.092;11.484;2022-12-29T13:54:03;0.82;;;0.43;;
10092;SDS011;5085;48.092;11.484;2022-12-29T13:56:37;1.05;;;0.45;;
10092;SDS011;5085;48.092;11.484;2022-12-29T13:59:17;1.42;;;0.40;;
10092;SDS011;5085;48.092;11.484;2022-12-29T14:01:52;1.35;;;0.60;;
10092;SDS011;5085;48.092;11.484;2022-12-29T14:04:25;1.15;;;0.45;;
10092;SDS011;5085;48.092;11.484;2022-12-29T14:06:58;0.88;;;0.38;;
10092;SDS011;5085;48.092;11.484;2022-12-29T14:12:21;1.80;;;0.63;;
10092;SDS011;5085;48.092;11.484;2022-12-29T14:17:42;1.98;;;0.50;;
10092;SDS011;5085;48.092;11.484;2022-12-29T14:20:17;1.92;;;0.60;;
10092;SDS011;5085;48.092;11.484;2022-12-29T14:28:30;2.20;;;0.57;;
10092;SDS011;5085;48.092;11.484;2022-12-29T14:33:25;2.17;;;0.70;;
10092;SDS011;5085;48.092;11.484;2022-12-29T14:35:54;2.42;;;0.90;;
10092;SDS011;5085;48.092;11.484;2022-12-29T14:38:25;1.65;;;0.80;;
10092;SDS011;5085;48.092;11.484;2022-12-29T14:40:53;3.20;;;0.60;;
10092;SDS011;5085;48.092;11.484;2022-12-29T14:43:53;2.72;;;0.88;;
10092;SDS011;5085;48.092;11.484;2022-12-29T14:46:22;4.07;;;0.77;;
10092;SDS011;5085;48.092;11.484;2022-12-29T14:48:52;2.63;;;0.90;;
10092;SDS011;5085;48.092;11.484;2022-12-29T14:51:27;2.03;;;0.75;;
10092;SDS011;5085;48.092;11.484;2022-12-29T14:53:57;2.45;;;0.90;;
10092;SDS011;5085;48.092;11.484;2022-12-29T14:56:24;5.20;;;1.05;;
10092;SDS011;5085;48.092;11.484;2022-12-29T14:58:54;3.10;;;0.90;;
10092;SDS011;5085;48.092;11.484;2022-12-29T15:04:27;2.08;;;0.90;;
10092;SDS011;5085;48.092;11.484;2022-12-29T15:06:56;1.73;;;0.80;;
10092;SDS011;5085;48.092;11.484;2022-12-29T15:11:52;2.17;;;0.90;;
10092;SDS011;5085;48.092;11.484;2022-12-29T15:14:35;1.83;;;0.85;;
10092;SDS011;5085;48.092;11.484;2022-12-29T15:17:09;2.50;;;1.08;;
10092;SDS011;5085;48.092;11.484;2022-12-29T15:19:48;2.90;;;1.00;;
10092;SDS011;5085;48.092;11.484;2022-12-29T15:22:14;2.65;;;1.08;;
10092;SDS011;5085;48.092;11.484;2022-12-29T15:24:41;2.05;;;1.23;;
10092;SDS011;5085;48.092;11.484;2022-12-29T15:27:15;2.50;;;1.05;;
10092;SDS011;5085;48.092;11.484;2022-12-29T15:29:45;3.85;;;0.95;;
10092;SDS011;5085;48.092;11.484;2022-12-29T15:34:40;3.30;;;0.93;;
10092;SDS011;5085;48.092;11.484;2022-12-29T15:37:07;1.95;;;0.82;;
10092;SDS011;5085;48.092;11.484;2022-12-29T15:39:34;3.47;;;0.85;;
10092;SDS011;5085;48.092;11.484;2022-12-29T15:42:03;4.53;;;1.23;;
10092;SDS011;5085;48.092;11.484;2022-12-29T15:44:44;2.65;;;1.30;;
10092;SDS011;5085;48.092;11.484;2022-12-29T15:50:01;2.90;;;1.20;;
10092;SDS011;5085;48.092;11.484;2022-12-29T15:52:31;3.17;;;1.20;;
10092;SDS011;5085;48.092;11.484;2022-12-29T15:54:58;1.52;;;0.80;;
10092;SDS011;5085;48.092;11.484;2022-12-29T15:57:30;3.00;;;1.13;;
10092;SDS011;5085;48.092;11.484;2022-12-29T16:00:03;3.33;;;1.10;;
10092;SDS011;5085;48.092;11.484;2022-12-29T16:02:46;2.47;;;0.80;;
10092;SDS011;5085;48.092;11.484;2022-12-29T16:05:15;2.80;;;1.05;;
10092;SDS011;5085;48.092;11.484;2022-12-29T16:07:51;1.67;;;0.70;;
10092;SDS011;5085;48.092;11.484;2022-12-29T16:10:43;2.63;;;1.08;;
10092;SDS011;5085;48.092;11.484;2022-12-29T16:13:19;2.85;;;1.05;;
10092;SDS011;5085;48.092;11.484;2022-12-29T16:15:46;3.72;;;1.13;;
10092;SDS011;5085;48.092;11.484;2022-12-29T16:18:20;2.63;;;0.90;;
10092;SDS011;5085;48.092;11.484;2022-12-29T16:20:52;4.72;;;1.17;;
10092;SDS011;5085;48.092;11.484;2022-12-29T16:23:21;2.28;;;1.13;;
10092;SDS011;5085;48.092;11.484;2022-12-29T16:25:50;2.78;;;0.85;;
10092;SDS011;5085;48.092;11.484;2022-12-29T16:28:21;2.65;;;0.60;;
10092;SDS011;5085;48.092;11.484;2022-12-29T16:30:59;1.85;;;0.77;;
10092;SDS011;5085;48.092;11.484;2022-12-29T16:33:35;1.70;;;1.00;;
10092;SDS011;5085;48.092;11.484;2022-12-29T16:36:27;1.73;;;0.82;;
10092;SDS011;5085;48.092;11.484;2022-12-29T16:41:52;2.30;;;1.20;;
10092;SDS011;5085;48.092;11.484;2022-12-29T16:44:20;2.38;;;1.05;;
10092;SDS011;5085;48.092;11.484;2022-12-29T16:46:59;5.88;;;1.05;;
10092;SDS011;5085;48.092;11.484;2022-12-29T16:49:37;4.18;;;1.08;;
10092;SDS011;5085;48.092;11.484;2022-12-29T16:52:13;2.28;;;1.20;;
10092;SDS011;5085;48.092;11.484;2022-12-29T16:54:48;2.35;;;0.95;;
10092;SDS011;5085;48.092;11.484;2022-12-29T16:57:21;2.00;;;1.10;;
10092;SDS011;5085;48.092;11.484;2022-12-29T16:59:50;4.32;;;1.08;;
10092;SDS011;5085;48.092;11.484;2022-12-29T17:02:19;3.88;;;1.35;;
10092;SDS011;5085;48.092;11.484;2022-12-29T17:04:48;4.13;;;1.35;;
10092;SDS011;5085;48.092;11.484;2022-12-29T17:07:17;5.28;;;1.70;;
10092;SDS011;5085;48.092;11.484;2022-12-29T17:09:47;3.65;;;1.33;;
10092;SDS011;5085;48.092;11.484;2022-12-29T17:12:15;5.47;;;1.25;;
10092;SDS011;5085;48.092;11.484;2022-12-29T17:14:45;4.25;;;1.38;;
10092;SDS011;5085;48.092;11.484;2022-12-29T17:17:25;4.25;;;1.20;;
10092;SDS011;5085;48.092;11.484;2022-12-29T17:20:14;3.42;;;1.38;;
10092;SDS011;5085;48.092;11.484;2022-12-29T17:22:43;5.88;;;1.50;;
10092;SDS011;5085;48.092;11.484;2022-12-29T17:25:13;3.30;;;1.55;;